White Sands Natl Monument, New Mexico
Current Conditions -  °F | °C
As of 11:58 AM on Saturday 20 Dec 2014 (Local Time) from KHMN Reporting Station
Clear Clear  
Wind Chill: 46°   Ceiling: Unl
Heat Index: 48°   Visibility: 10mi
Dew Point: 29°   Wind: 5mph
Humidity: 47%   Direction: 310°NW
Pressure: 30.12"   Gusts: NA
Location:  32.77°N, 106.33°W
Report Text: KHMN 201858Z AUTO 31004KT 10SM CLR 09/M02 A3012 RMK AO2 SLP189 T00901018 $
Loading
Personal Weather Stations






























Interactive Weather Map New forecast layout! Learn more

10-Day Weather Forecast

Advertisements
Track Severe Weather on mobile